Time;durP1;ratioP1;P1;durP2;ratioP2;P2;SDS_P1;SDS_P2;PMS_P1;PMS_P2;Temp;Humidity;BMP_temperature;BMP_pressure;BME280_temperature;BME280_humidity;BME280_pressure;Samples;Min_cycle;Max_cycle;Signal;HPM_P1;HPM_P2
2022/05/06 00:01:32;;;;;;;19.80;11.70;;;11.60;99.90;;;;;;5011454;28;20028;-76
2022/05/06 00:03:58;;;;;;;19.40;12.90;;;11.60;99.90;;;;;;5016479;28;20017;-74
2022/05/06 00:06:24;;;;;;;20.77;12.68;;;11.60;99.90;;;;;;5011697;28;20083;-74
2022/05/06 00:08:50;;;;;;;22.45;14.00;;;11.60;99.90;;;;;;5032402;28;20033;-74
2022/05/06 00:11:15;;;;;;;18.55;12.48;;;11.50;99.90;;;;;;5033023;28;20164;-74
2022/05/06 00:13:41;;;;;;;19.35;12.30;;;11.50;99.90;;;;;;5029485;28;20069;-74
2022/05/06 00:16:08;;;;;;;21.60;13.40;;;11.40;99.90;;;;;;5011474;28;20036;-75
2022/05/06 00:18:35;;;;;;;22.65;13.25;;;11.40;99.90;;;;;;5014882;28;20532;-74
2022/05/06 00:21:01;;;;;;;19.23;13.02;;;11.30;99.90;;;;;;5032832;28;20606;-73
2022/05/06 00:23:26;;;;;;;22.88;13.90;;;11.20;99.90;;;;;;5012652;28;20025;-77
2022/05/06 00:25:52;;;;;;;18.88;12.13;;;11.30;99.90;;;;;;5029205;28;20061;-74
2022/05/06 00:28:18;;;;;;;19.25;12.77;;;11.20;99.90;;;;;;5035018;28;20029;-74
2022/05/06 00:30:44;;;;;;;19.40;12.13;;;11.20;99.90;;;;;;5036705;28;20061;-74
2022/05/06 00:33:09;;;;;;;27.67;13.60;;;11.20;99.90;;;;;;5030970;28;20040;-74
2022/05/06 00:35:38;;;;;;;24.55;12.93;;;11.20;99.90;;;;;;5015766;28;20040;-74
2022/05/06 00:38:05;;;;;;;18.45;11.32;;;11.20;99.90;;;;;;5018037;28;20029;-73
2022/05/06 00:40:31;;;;;;;19.27;12.02;;;11.20;99.90;;;;;;5018336;28;20056;-74
2022/05/06 00:42:56;;;;;;;23.45;13.95;;;11.10;99.90;;;;;;5033285;28;20044;-74
2022/05/06 00:45:23;;;;;;;19.15;12.55;;;11.20;99.90;;;;;;5037537;28;20481;-74
2022/05/06 00:47:50;;;;;;;22.65;12.07;;;11.20;99.90;;;;;;5020674;28;20029;-74
2022/05/06 00:50:16;;;;;;;19.58;12.88;;;11.10;99.90;;;;;;4998419;28;20377;-74
2022/05/06 00:52:42;;;;;;;20.17;12.75;;;11.10;99.90;;;;;;5017836;28;20086;-73
2022/05/06 00:55:08;;;;;;;21.65;12.00;;;11.00;99.90;;;;;;5035422;28;20500;-74
2022/05/06 00:57:35;;;;;;;19.83;12.50;;;11.00;99.90;;;;;;5019463;28;20049;-74
2022/05/06 01:00:18;;;;;;;18.88;11.95;;;11.00;99.90;;;;;;5021517;28;20096;-73
2022/05/06 01:02:45;;;;;;;21.13;11.90;;;11.00;99.90;;;;;;5017999;28;20121;-74
2022/05/06 01:05:12;;;;;;;19.52;12.30;;;11.00;99.90;;;;;;5036097;28;20037;-74
2022/05/06 01:07:39;;;;;;;17.15;11.60;;;11.00;99.90;;;;;;5034410;28;20052;-75
2022/05/06 01:10:06;;;;;;;17.73;12.10;;;11.00;99.90;;;;;;5004174;28;20033;-75
2022/05/06 01:12:32;;;;;;;20.15;11.50;;;11.00;99.90;;;;;;5019918;28;20187;-74
2022/05/06 01:14:57;;;;;;;19.67;12.68;;;10.90;99.90;;;;;;5017022;28;20553;-75
2022/05/06 01:17:23;;;;;;;24.23;12.75;;;10.90;99.90;;;;;;5020752;28;20112;-75
2022/05/06 01:19:49;;;;;;;23.13;12.68;;;10.90;99.90;;;;;;5016599;28;20334;-73
2022/05/06 01:22:17;;;;;;;21.88;12.80;;;10.90;99.90;;;;;;5012799;28;20022;-74
2022/05/06 01:24:44;;;;;;;20.48;12.88;;;10.90;99.90;;;;;;5027289;28;20421;-73
2022/05/06 01:27:20;;;;;;;19.80;12.43;;;10.80;99.90;;;;;;5031265;28;20543;-74
2022/05/06 01:29:47;;;;;;;26.10;13.40;;;10.80;99.90;;;;;;5013888;28;20111;-74
2022/05/06 01:32:15;;;;;;;24.25;13.05;;;10.80;99.90;;;;;;5012854;28;20049;-74
2022/05/06 01:34:42;;;;;;;22.73;12.85;;;10.80;99.90;;;;;;5032917;28;20108;-74
2022/05/06 01:37:11;;;;;;;19.98;13.27;;;10.80;99.90;;;;;;5009583;28;20052;-73
2022/05/06 01:39:39;;;;;;;24.63;13.68;;;10.80;99.90;;;;;;5012005;28;20109;-73
2022/05/06 01:42:08;;;;;;;20.08;11.77;;;10.80;99.90;;;;;;5009323;28;20108;-74
2022/05/06 01:44:45;;;;;;;20.90;12.52;;;10.70;99.90;;;;;;5028362;28;20029;-74
2022/05/06 01:47:17;;;;;;;20.55;12.95;;;10.70;99.90;;;;;;5010917;28;20025;-74
2022/05/06 01:49:45;;;;;;;21.40;13.63;;;10.60;99.90;;;;;;5012581;28;20024;-74
2022/05/06 01:52:17;;;;;;;24.65;13.02;;;10.70;99.90;;;;;;5011627;28;20021;-73
2022/05/06 01:54:43;;;;;;;24.45;13.57;;;10.70;99.90;;;;;;5028672;28;20086;-73
2022/05/06 01:57:08;;;;;;;21.75;12.48;;;10.60;99.90;;;;;;5008467;28;20496;-74
2022/05/06 01:59:34;;;;;;;26.88;14.48;;;10.60;99.90;;;;;;5008026;28;20029;-74
2022/05/06 02:02:00;;;;;;;21.70;12.93;;;10.60;99.90;;;;;;5012333;28;20531;-73
2022/05/06 02:07:09;;;;;;;25.30;13.40;;;10.60;99.90;;;;;;5025721;28;20032;-74
2022/05/06 02:09:35;;;;;;;25.48;14.63;;;10.50;99.90;;;;;;5028785;28;20104;-74
2022/05/06 02:12:01;;;;;;;25.73;13.07;;;10.50;99.90;;;;;;5007630;28;20037;-74
2022/05/06 02:14:27;;;;;;;22.25;13.52;;;10.50;99.90;;;;;;5004582;28;20105;-74
2022/05/06 02:16:53;;;;;;;19.63;12.52;;;10.50;99.90;;;;;;5008470;28;20017;-74
2022/05/06 02:19:19;;;;;;;27.33;14.40;;;10.50;99.90;;;;;;4991583;28;20027;-74
2022/05/06 02:21:45;;;;;;;22.65;13.68;;;10.50;99.90;;;;;;5010349;28;20021;-74
2022/05/06 02:24:12;;;;;;;25.80;14.80;;;10.40;99.90;;;;;;5012489;28;20056;-74
2022/05/06 02:26:38;;;;;;;20.85;13.45;;;10.40;99.90;;;;;;5007179;28;20029;-74
2022/05/06 02:29:04;;;;;;;24.17;13.48;;;10.40;99.90;;;;;;5027985;28;20490;-74
2022/05/06 02:34:17;;;;;;;25.42;15.23;;;10.40;99.90;;;;;;5026843;28;20036;-74
2022/05/06 02:36:44;;;;;;;23.83;14.13;;;10.30;99.90;;;;;;5027890;28;20034;-74
2022/05/06 02:39:09;;;;;;;24.55;14.50;;;10.30;99.90;;;;;;5008850;28;20029;-75
2022/05/06 02:41:35;;;;;;;25.52;14.23;;;10.30;99.90;;;;;;5027676;28;20025;-75
2022/05/06 02:44:04;;;;;;;24.67;14.15;;;10.30;99.90;;;;;;5027675;28;20029;-73
2022/05/06 02:46:34;;;;;;;28.23;16.23;;;10.30;99.90;;;;;;5007228;28;20386;-74
2022/05/06 02:49:01;;;;;;;23.65;15.07;;;10.30;99.90;;;;;;5026588;28;20025;-73
2022/05/06 02:51:28;;;;;;;27.85;15.77;;;10.30;99.90;;;;;;5009881;28;20037;-77
2022/05/06 02:53:56;;;;;;;28.05;15.98;;;10.20;99.90;;;;;;5008391;28;20025;-74
2022/05/06 02:56:23;;;;;;;23.20;15.18;;;10.20;99.90;;;;;;5022569;28;20026;-74
2022/05/06 02:58:49;;;;;;;24.90;14.02;;;10.20;99.90;;;;;;5027528;28;20044;-73
2022/05/06 03:01:15;;;;;;;29.33;16.85;;;10.20;99.90;;;;;;5008297;28;20504;-76
2022/05/06 03:03:40;;;;;;;30.95;17.40;;;10.20;99.90;;;;;;5027070;28;20025;-74
2022/05/06 03:06:06;;;;;;;27.40;15.88;;;10.20;99.90;;;;;;5027881;28;20170;-73
2022/05/06 03:08:31;;;;;;;28.27;15.88;;;10.10;99.90;;;;;;5026276;28;20026;-72
2022/05/06 03:10:59;;;;;;;26.73;15.80;;;10.20;99.90;;;;;;5022787;28;20037;-74
2022/05/06 03:13:25;;;;;;;29.63;16.95;;;10.10;99.90;;;;;;5010791;28;20045;-74
2022/05/06 03:15:52;;;;;;;25.90;16.02;;;10.10;99.90;;;;;;5025868;28;20025;-73
2022/05/06 03:18:17;;;;;;;32.15;16.00;;;10.00;99.90;;;;;;5025764;28;20140;-76
2022/05/06 03:20:45;;;;;;;27.80;16.92;;;10.00;99.90;;;;;;5006615;28;20163;-73
2022/05/06 03:23:15;;;;;;;26.48;15.82;;;10.00;99.90;;;;;;5024337;28;20044;-73
2022/05/06 03:25:41;;;;;;;25.95;15.93;;;9.90;99.90;;;;;;5025116;28;20033;-73
2022/05/06 03:28:09;;;;;;;27.67;16.25;;;9.90;99.90;;;;;;5027278;28;20025;-73
2022/05/06 03:30:44;;;;;;;25.48;15.32;;;10.00;99.90;;;;;;5027943;28;20030;-73
2022/05/06 03:33:12;;;;;;;29.33;17.17;;;10.00;99.90;;;;;;5024375;28;20045;-72
2022/05/06 03:35:38;;;;;;;28.05;16.05;;;10.00;99.90;;;;;;4991357;28;20037;-74
2022/05/06 03:38:05;;;;;;;29.27;15.50;;;10.00;99.90;;;;;;5009817;28;20536;-75
2022/05/06 03:40:34;;;;;;;27.80;15.45;;;9.90;99.90;;;;;;5025319;28;20029;-75
2022/05/06 03:43:00;;;;;;;30.55;15.43;;;9.90;99.90;;;;;;5024887;28;20128;-75
2022/05/06 03:45:26;;;;;;;28.77;15.30;;;9.90;99.90;;;;;;5010976;28;20040;-75
2022/05/06 03:47:54;;;;;;;26.45;15.77;;;9.90;99.90;;;;;;5005204;28;20041;-74
2022/05/06 03:53:06;;;;;;;28.05;15.60;;;9.90;99.90;;;;;;5020520;28;20271;-74
2022/05/06 03:55:32;;;;;;;27.05;15.23;;;9.90;99.90;;;;;;5023778;28;20049;-75
2022/05/06 03:57:57;;;;;;;33.55;16.95;;;9.90;99.90;;;;;;5017548;28;20069;-74
2022/05/06 04:00:23;;;;;;;31.88;16.73;;;9.90;99.90;;;;;;5005627;28;20393;-74
2022/05/06 04:02:49;;;;;;;33.92;17.17;;;9.90;99.90;;;;;;4989893;28;20026;-74
2022/05/06 04:05:15;;;;;;;35.38;18.05;;;9.90;99.90;;;;;;5008542;28;20033;-74
2022/05/06 04:07:41;;;;;;;28.60;16.50;;;9.90;99.90;;;;;;5023981;28;20021;-74
2022/05/06 04:10:07;;;;;;;34.83;17.48;;;10.00;99.90;;;;;;5007490;28;20199;-74
2022/05/06 04:12:33;;;;;;;30.50;17.08;;;9.90;99.90;;;;;;5021633;28;20581;-75
2022/05/06 04:14:59;;;;;;;28.27;17.25;;;9.80;99.90;;;;;;5007661;28;20131;-73
2022/05/06 04:17:24;;;;;;;28.98;17.92;;;9.80;99.90;;;;;;5029117;28;20037;-73
2022/05/06 04:25:20;;;;;;;31.80;17.88;;;9.80;99.90;;;;;;5027222;28;20025;-74
2022/05/06 04:27:46;;;;;;;29.73;17.70;;;9.90;99.90;;;;;;5007886;28;20040;-74
2022/05/06 04:30:12;;;;;;;34.17;18.17;;;9.90;99.90;;;;;;5023144;28;20048;-73
2022/05/06 04:32:38;;;;;;;30.20;17.15;;;9.90;99.90;;;;;;5007237;28;20381;-73
2022/05/06 04:35:08;;;;;;;35.00;18.42;;;9.90;99.90;;;;;;5005583;28;20040;-73
2022/05/06 04:37:34;;;;;;;30.75;17.42;;;9.90;99.90;;;;;;5002951;28;20119;-73
2022/05/06 04:40:00;;;;;;;37.20;19.48;;;9.90;99.90;;;;;;5023769;28;20025;-74
2022/05/06 04:42:26;;;;;;;35.75;18.38;;;10.00;99.90;;;;;;5007934;28;20105;-72
2022/05/06 04:44:53;;;;;;;31.88;18.33;;;10.00;99.90;;;;;;5007961;28;20100;-75
2022/05/06 04:47:18;;;;;;;34.95;19.33;;;10.00;99.90;;;;;;5005975;28;20129;-73
2022/05/06 04:49:44;;;;;;;33.15;17.73;;;10.10;99.90;;;;;;5021302;28;20497;-74
2022/05/06 04:52:10;;;;;;;40.13;17.88;;;10.20;99.90;;;;;;4984742;28;20101;-73
2022/05/06 04:54:38;;;;;;;35.40;19.13;;;10.20;99.90;;;;;;5022852;28;20124;-72
2022/05/06 04:57:04;;;;;;;30.85;17.90;;;10.20;99.90;;;;;;5025261;28;20025;-74
2022/05/06 04:59:29;;;;;;;31.88;16.83;;;10.20;99.90;;;;;;5024319;28;20393;-75
2022/05/06 05:01:55;;;;;;;29.45;17.45;;;10.20;99.90;;;;;;5000557;28;20030;-73
2022/05/06 05:04:27;;;;;;;27.52;16.95;;;10.20;99.90;;;;;;5015367;28;20032;-74
2022/05/06 05:06:54;;;;;;;31.95;18.27;;;10.20;99.90;;;;;;5023360;28;20089;-73
2022/05/06 05:09:20;;;;;;;30.25;17.27;;;10.20;99.90;;;;;;5008285;28;20040;-74
2022/05/06 05:11:47;;;;;;;27.95;17.02;;;10.30;99.90;;;;;;5025575;28;20437;-73
2022/05/06 05:14:13;;;;;;;30.95;17.20;;;10.30;99.90;;;;;;5004875;28;20346;-71
2022/05/06 05:16:38;;;;;;;35.63;17.80;;;10.30;99.90;;;;;;5010791;28;20044;-76
2022/05/06 05:19:05;;;;;;;28.08;17.77;;;10.40;99.90;;;;;;5009062;28;20025;-72
2022/05/06 05:21:30;;;;;;;30.23;18.20;;;10.40;99.90;;;;;;5011761;28;20078;-73
2022/05/06 05:23:56;;;;;;;29.90;17.27;;;10.40;99.90;;;;;;5007932;28;20069;-81
2022/05/06 05:26:24;;;;;;;32.75;19.15;;;10.50;99.90;;;;;;5009102;28;20120;-74
2022/05/06 05:28:49;;;;;;;33.67;18.13;;;10.50;99.90;;;;;;5019859;28;20254;-74
2022/05/06 05:31:15;;;;;;;30.45;17.73;;;10.50;99.90;;;;;;5005409;28;20192;-74
2022/05/06 05:33:41;;;;;;;39.03;20.88;;;10.60;99.90;;;;;;4988708;28;20030;-77
2022/05/06 05:36:06;;;;;;;36.45;19.30;;;10.70;99.90;;;;;;4992468;28;20044;-75
2022/05/06 05:38:32;;;;;;;31.20;17.63;;;10.70;99.90;;;;;;5027388;28;20036;-75
2022/05/06 05:40:58;;;;;;;32.90;20.20;;;10.80;99.90;;;;;;5025279;28;20120;-74
2022/05/06 05:48:52;;;;;;;31.80;18.58;;;11.00;99.90;;;;;;5025274;28;20092;-77
2022/05/06 05:51:18;;;;;;;33.38;19.65;;;11.00;99.90;;;;;;5027943;28;20029;-73
2022/05/06 05:53:45;;;;;;;38.58;19.10;;;11.10;99.90;;;;;;5009260;28;20040;-76
2022/05/06 05:56:11;;;;;;;39.35;20.77;;;11.10;99.90;;;;;;4998742;28;20030;-74
2022/05/06 05:58:36;;;;;;;36.83;21.70;;;11.20;99.90;;;;;;5012232;28;20040;-74
2022/05/06 06:01:04;;;;;;;40.60;21.25;;;11.30;99.90;;;;;;5005360;28;20022;-74
2022/05/06 06:03:29;;;;;;;37.88;21.60;;;11.30;99.90;;;;;;5011543;28;20373;-74
2022/05/06 06:05:55;;;;;;;41.17;21.50;;;11.30;99.90;;;;;;5025670;28;20116;-76
2022/05/06 06:08:23;;;;;;;46.50;22.88;;;11.40;99.90;;;;;;5009874;28;20029;-74
2022/05/06 06:10:49;;;;;;;37.42;21.27;;;11.40;99.90;;;;;;5010995;28;20021;-74
2022/05/06 06:13:18;;;;;;;42.55;22.10;;;11.40;99.90;;;;;;5012256;28;20109;-74
2022/05/06 06:15:45;;;;;;;45.00;23.60;;;11.50;99.90;;;;;;5028032;28;20334;-74
2022/05/06 06:18:10;;;;;;;37.33;20.52;;;11.60;99.90;;;;;;5008363;28;20026;-75
2022/05/06 06:20:37;;;;;;;39.13;22.60;;;11.60;99.90;;;;;;5019564;28;20079;-75
2022/05/06 06:23:03;;;;;;;38.60;21.38;;;11.70;99.90;;;;;;5005279;28;20025;-74
2022/05/06 06:25:29;;;;;;;34.30;20.17;;;11.80;99.90;;;;;;5006588;28;20049;-73
2022/05/06 06:27:55;;;;;;;41.95;22.33;;;11.90;99.90;;;;;;5022132;28;20061;-75
2022/05/06 06:30:20;;;;;;;42.63;22.35;;;12.00;99.90;;;;;;5013199;28;20033;-74
2022/05/06 06:32:46;;;;;;;41.40;23.20;;;12.00;99.90;;;;;;5025720;28;20378;-73
2022/05/06 06:35:12;;;;;;;40.53;23.05;;;12.20;99.90;;;;;;5024962;28;20041;-74
2022/05/06 06:37:38;;;;;;;37.10;21.60;;;12.10;99.90;;;;;;5029965;28;20029;-75
2022/05/06 06:40:05;;;;;;;39.85;22.00;;;12.20;99.90;;;;;;5004620;28;20405;-74
2022/05/06 06:42:31;;;;;;;47.72;24.35;;;12.20;99.90;;;;;;5008957;28;20095;-74
2022/05/06 06:44:59;;;;;;;76.43;32.50;;;12.20;99.90;;;;;;5022742;28;20030;-74
2022/05/06 06:47:24;;;;;;;45.92;25.98;;;12.30;99.90;;;;;;5030070;28;20401;-74
2022/05/06 06:49:50;;;;;;;45.42;23.60;;;12.30;99.90;;;;;;5028456;28;20025;-74
2022/05/06 06:52:15;;;;;;;55.58;28.58;;;12.40;99.90;;;;;;5030854;28;20025;-76
2022/05/06 06:54:41;;;;;;;65.20;29.25;;;12.50;99.90;;;;;;5008873;28;20030;-74
2022/05/06 06:57:07;;;;;;;42.88;25.42;;;12.60;99.90;;;;;;5025515;28;20140;-74
2022/05/06 06:59:34;;;;;;;40.38;24.58;;;12.60;99.90;;;;;;5004356;28;20397;-74
2022/05/06 07:02:01;;;;;;;36.22;22.27;;;12.60;99.90;;;;;;5008594;28;20032;-74
2022/05/06 07:04:27;;;;;;;36.45;21.40;;;12.60;99.90;;;;;;5020197;28;20034;-81
2022/05/06 07:12:22;;;;;;;39.25;22.85;;;12.90;99.90;;;;;;5023758;28;20043;-74
2022/05/06 07:14:47;;;;;;;34.92;20.50;;;12.90;99.90;;;;;;5027783;28;21999;-74
2022/05/06 07:17:14;;;;;;;35.92;20.48;;;13.00;99.90;;;;;;5004732;28;20117;-73
2022/05/06 07:19:40;;;;;;;34.50;21.13;;;13.10;99.90;;;;;;5021142;28;20021;-73
2022/05/06 07:22:05;;;;;;;41.70;22.48;;;13.10;99.90;;;;;;5027659;28;20116;-74
2022/05/06 07:24:31;;;;;;;36.95;21.25;;;13.20;99.90;;;;;;5014833;28;20044;-73
2022/05/06 07:26:57;;;;;;;30.58;18.55;;;13.20;99.90;;;;;;5013796;28;20029;-73
2022/05/06 07:29:23;;;;;;;28.55;17.25;;;13.30;99.90;;;;;;5032940;28;20452;-74
2022/05/06 07:31:49;;;;;;;28.00;17.40;;;13.40;99.90;;;;;;5031978;28;20036;-73
2022/05/06 07:34:15;;;;;;;26.45;15.75;;;13.40;99.90;;;;;;5013035;28;20025;-74
2022/05/06 07:36:42;;;;;;;30.65;16.85;;;13.50;99.90;;;;;;5009714;28;20432;-75
2022/05/06 07:39:15;;;;;;;23.65;16.45;;;13.60;99.90;;;;;;4997377;28;20022;-75
2022/05/06 07:41:41;;;;;;;27.25;16.70;;;13.60;99.90;;;;;;5013870;28;20021;-75
2022/05/06 07:44:07;;;;;;;25.15;16.13;;;13.70;99.90;;;;;;5031158;28;20083;-74
2022/05/06 07:46:35;;;;;;;23.92;13.95;;;13.80;99.90;;;;;;5015076;28;20033;-74
2022/05/06 07:49:01;;;;;;;24.83;15.82;;;13.80;99.90;;;;;;5015893;28;20032;-76
2022/05/06 07:51:27;;;;;;;27.77;17.02;;;13.90;99.90;;;;;;5015983;28;20040;-77
2022/05/06 07:53:57;;;;;;;26.88;15.63;;;13.90;99.90;;;;;;5033323;28;20107;-75
2022/05/06 07:56:31;;;;;;;36.13;17.60;;;14.00;99.90;;;;;;5033983;28;20044;-73
2022/05/06 07:58:57;;;;;;;29.48;16.50;;;14.00;99.90;;;;;;5032796;28;20025;-73
2022/05/06 08:04:32;;;;;;;24.60;16.92;;;14.10;99.90;;;;;;5013394;28;20076;-73
2022/05/06 08:06:54;;;;;;;22.45;14.48;;;14.20;99.90;;;;;;5032227;28;20037;-74
2022/05/06 08:09:22;;;;;;;22.52;13.15;;;14.20;99.90;;;;;;5015427;28;20112;-75
2022/05/06 08:11:49;;;;;;;22.45;14.02;;;14.30;99.90;;;;;;5033297;28;20086;-74
2022/05/06 08:14:16;;;;;;;24.27;13.40;;;14.30;99.90;;;;;;5013985;28;20096;-74
2022/05/06 08:16:45;;;;;;;22.00;13.52;;;14.40;99.90;;;;;;5016350;28;20116;-75
2022/05/06 08:19:11;;;;;;;20.25;14.05;;;14.50;99.90;;;;;;5017303;28;20108;-75
2022/05/06 08:21:40;;;;;;;20.67;12.68;;;14.50;99.90;;;;;;5033265;28;20100;-74
2022/05/06 08:24:06;;;;;;;20.35;13.77;;;14.50;99.90;;;;;;5032000;28;20075;-74
2022/05/06 08:26:33;;;;;;;24.65;14.13;;;14.60;99.90;;;;;;5033513;28;20074;-74
2022/05/06 08:28:59;;;;;;;22.00;13.70;;;14.60;99.90;;;;;;5012058;28;20160;-74
2022/05/06 08:31:25;;;;;;;23.70;13.07;;;14.60;99.90;;;;;;5015050;28;20029;-74
2022/05/06 08:33:50;;;;;;;18.83;12.07;;;14.80;99.90;;;;;;5031234;28;20127;-74
2022/05/06 08:36:16;;;;;;;19.20;11.20;;;14.90;99.90;;;;;;5011919;28;20039;-74
2022/05/06 08:38:43;;;;;;;26.17;14.10;;;15.00;99.90;;;;;;5013520;28;20025;-74
2022/05/06 08:41:10;;;;;;;19.73;13.65;;;15.00;99.90;;;;;;5032681;28;20034;-75
2022/05/06 08:43:37;;;;;;;20.45;12.13;;;15.00;99.90;;;;;;5014917;28;20070;-74
2022/05/06 08:50:50;;;;;;;20.67;11.85;;;15.10;99.90;;;;;;5031577;28;20044;-74
2022/05/06 08:51:47;;;;;;;19.08;12.05;;;15.30;99.90;;;;;;5034062;28;20034;-75
2022/05/06 08:54:16;;;;;;;15.82;10.07;;;15.40;99.90;;;;;;5038648;28;20029;-75
2022/05/06 08:56:43;;;;;;;16.98;10.98;;;15.50;99.90;;;;;;5038614;28;20025;-75
2022/05/06 08:59:08;;;;;;;16.85;10.60;;;15.50;99.90;;;;;;5017359;28;20037;-74
2022/05/06 09:01:34;;;;;;;15.93;10.02;;;15.60;99.90;;;;;;5015990;28;20047;-75
2022/05/06 09:04:00;;;;;;;15.65;10.05;;;15.60;99.90;;;;;;5036763;28;20067;-77
2022/05/06 09:06:29;;;;;;;13.90;9.38;;;15.60;99.90;;;;;;5017059;28;20037;-74
2022/05/06 09:08:59;;;;;;;17.83;10.77;;;15.70;99.90;;;;;;5019329;28;20034;-74
2022/05/06 09:14:20;;;;;;;12.00;8.00;;;15.70;99.90;;;;;;5016910;28;20496;-74
2022/05/06 09:16:47;;;;;;;13.82;8.93;;;15.80;99.90;;;;;;5003968;28;20033;-75
2022/05/06 09:19:24;;;;;;;14.45;9.50;;;15.90;99.90;;;;;;5019828;28;20026;-74
2022/05/06 09:22:11;;;;;;;16.20;11.20;;;16.00;99.90;;;;;;5012075;28;20023;-74
2022/05/06 09:24:39;;;;;;;18.42;10.88;;;16.10;99.90;;;;;;5034532;28;20029;-74
2022/05/06 09:27:24;;;;;;;14.07;9.25;;;16.20;99.90;;;;;;5016739;28;20034;-74
2022/05/06 09:29:57;;;;;;;18.15;11.13;;;16.20;99.90;;;;;;5016042;28;20056;-75
2022/05/06 09:32:30;;;;;;;16.95;10.98;;;16.30;99.90;;;;;;5014732;28;20429;-74
2022/05/06 09:35:09;;;;;;;16.60;9.50;;;16.30;99.90;;;;;;5015865;28;20029;-74
2022/05/06 09:37:37;;;;;;;15.30;10.43;;;16.40;99.90;;;;;;5013727;28;20022;-75
2022/05/06 09:40:06;;;;;;;20.95;11.18;;;16.50;99.90;;;;;;5017429;28;20032;-75
2022/05/06 09:42:33;;;;;;;15.77;10.55;;;16.60;99.90;;;;;;5028905;28;20029;-76
2022/05/06 09:45:00;;;;;;;18.10;10.57;;;16.70;99.90;;;;;;5014595;28;20040;-75
2022/05/06 09:47:26;;;;;;;20.63;12.68;;;16.70;99.90;;;;;;5016430;28;20033;-76
2022/05/06 09:49:53;;;;;;;17.77;10.75;;;16.90;99.20;;;;;;5020934;28;20140;-76
2022/05/06 09:52:19;;;;;;;15.88;10.55;;;16.90;99.50;;;;;;5014337;28;20038;-75
2022/05/06 09:54:47;;;;;;;16.23;10.95;;;17.10;99.30;;;;;;4996689;28;20033;-75
2022/05/06 09:57:19;;;;;;;15.75;10.45;;;17.30;98.80;;;;;;5018112;28;20108;-77
2022/05/06 09:59:51;;;;;;;15.23;9.93;;;17.50;98.70;;;;;;5034344;28;20512;-75
2022/05/06 10:02:19;;;;;;;24.98;14.32;;;17.70;98.50;;;;;;5031080;28;20697;-74
2022/05/06 10:04:47;;;;;;;21.27;12.95;;;17.80;97.00;;;;;;5036568;28;20043;-75
2022/05/06 10:07:18;;;;;;;16.70;10.85;;;17.70;97.10;;;;;;5032698;28;20061;-76
2022/05/06 10:10:01;;;;;;;15.75;10.55;;;17.80;97.40;;;;;;5031016;28;20017;-75
2022/05/06 10:12:39;;;;;;;18.92;12.13;;;17.90;97.20;;;;;;5017308;28;20405;-80
2022/05/06 10:15:11;;;;;;;20.15;11.68;;;17.80;97.00;;;;;;5017498;28;20044;-76
2022/05/06 10:17:48;;;;;;;16.00;9.95;;;17.70;97.10;;;;;;5037448;28;20040;-74
2022/05/06 10:20:36;;;;;;;16.42;11.02;;;17.60;97.30;;;;;;5016004;28;20100;-75
2022/05/06 10:23:09;;;;;;;15.55;10.68;;;17.70;97.50;;;;;;5036720;28;20026;-74
2022/05/06 10:25:41;;;;;;;19.50;12.63;;;17.70;97.40;;;;;;5030640;28;20528;-76
2022/05/06 10:34:09;;;;;;;18.83;12.13;;;17.90;97.20;;;;;;5031343;28;20029;-74
2022/05/06 10:36:49;;;;;;;14.02;9.40;;;18.10;96.50;;;;;;5031718;28;20496;-76
2022/05/06 10:39:24;;;;;;;21.45;12.40;;;18.20;96.60;;;;;;5017764;28;20423;-74
2022/05/06 10:42:16;;;;;;;19.27;12.15;;;18.30;96.20;;;;;;5032305;28;20036;-75
2022/05/06 10:44:48;;;;;;;18.42;12.52;;;18.40;95.80;;;;;;5035995;28;20041;-74
2022/05/06 10:47:18;;;;;;;17.13;11.07;;;18.50;95.90;;;;;;5012751;28;20029;-75
2022/05/06 10:49:46;;;;;;;21.05;12.02;;;18.70;95.40;;;;;;5000671;28;20630;-75
2022/05/06 10:52:19;;;;;;;17.48;10.55;;;18.80;95.30;;;;;;5020444;28;20048;-75
2022/05/06 10:54:50;;;;;;;13.18;9.50;;;19.00;95.30;;;;;;5036865;28;20029;-76
2022/05/06 10:57:19;;;;;;;17.98;10.38;;;19.20;94.80;;;;;;5036636;28;20046;-74
2022/05/06 11:00:06;;;;;;;15.02;9.98;;;19.50;94.10;;;;;;5034748;28;20021;-75
2022/05/06 11:02:33;;;;;;;15.10;9.30;;;19.70;93.10;;;;;;5035234;28;20033;-76
2022/05/06 11:05:01;;;;;;;15.48;8.52;;;19.80;91.90;;;;;;5018898;28;20029;-75
2022/05/06 11:07:29;;;;;;;10.23;6.50;;;20.10;91.90;;;;;;5037315;28;20053;-72
2022/05/06 11:09:58;;;;;;;18.05;12.00;;;20.50;92.20;;;;;;5001659;28;20385;-76
2022/05/06 11:12:30;;;;;;;28.08;15.77;;;21.40;87.30;;;;;;5033666;28;20032;-74
2022/05/06 11:14:57;;;;;;;33.88;16.10;;;22.10;86.10;;;;;;5016685;28;20037;-76
2022/05/06 11:17:27;;;;;;;17.08;10.13;;;23.70;86.20;;;;;;5015797;28;20033;-75
2022/05/06 11:19:53;;;;;;;12.82;9.40;;;25.50;77.80;;;;;;5014835;28;20082;-77
2022/05/06 11:22:20;;;;;;;13.40;8.02;;;26.90;69.70;;;;;;5020851;28;20025;-75
2022/05/06 11:24:47;;;;;;;15.45;8.70;;;27.10;64.50;;;;;;5035835;28;20017;-77
2022/05/06 11:27:17;;;;;;;12.10;7.85;;;26.60;63.30;;;;;;5035228;28;20029;-75
2022/05/06 11:29:51;;;;;;;12.20;7.10;;;26.10;63.00;;;;;;5032179;28;20032;-74
2022/05/06 11:32:17;;;;;;;8.60;5.65;;;27.10;62.10;;;;;;5002255;28;20043;-77
2022/05/06 11:35:11;;;;;;;13.05;8.63;;;28.90;57.80;;;;;;5034130;28;20064;-74
2022/05/06 11:37:40;;;;;;;8.95;5.72;;;29.20;50.60;;;;;;5028591;28;20059;-75
2022/05/06 11:40:32;;;;;;;7.93;5.43;;;29.10;52.80;;;;;;5012882;28;20053;-76
2022/05/06 11:43:19;;;;;;;8.50;5.18;;;28.50;51.80;;;;;;5039161;28;20052;-78
2022/05/06 11:48:47;;;;;;;7.78;5.20;;;28.50;51.00;;;;;;5028227;28;20029;-74
2022/05/06 11:51:23;;;;;;;7.60;4.65;;;29.00;50.80;;;;;;5031090;28;20101;-75
2022/05/06 11:53:49;;;;;;;7.13;4.65;;;29.10;47.80;;;;;;4998908;28;20038;-77
2022/05/06 11:56:27;;;;;;;9.50;6.32;;;28.60;48.40;;;;;;5032934;28;20045;-75
2022/05/06 11:58:59;;;;;;;9.32;6.20;;;28.00;47.30;;;;;;5002175;28;20032;-75
2022/05/06 12:01:30;;;;;;;14.05;5.93;;;27.60;50.90;;;;;;5012779;28;20020;-74
2022/05/06 12:04:04;;;;;;;6.40;4.97;;;27.40;49.10;;;;;;5034748;28;20496;-73
2022/05/06 12:06:32;;;;;;;7.82;4.40;;;27.70;51.50;;;;;;5015312;28;20037;-74
2022/05/06 12:09:11;;;;;;;6.82;5.65;;;28.10;51.20;;;;;;5030703;28;20033;-74
2022/05/06 12:11:38;;;;;;;7.45;4.70;;;28.50;48.70;;;;;;5008212;28;20052;-75
2022/05/06 12:14:17;;;;;;;6.65;5.10;;;28.80;48.70;;;;;;5006062;28;20037;-73
2022/05/06 12:17:03;;;;;;;9.25;6.63;;;29.50;48.20;;;;;;5007835;28;20037;-73
2022/05/06 12:19:49;;;;;;;8.32;5.57;;;28.60;45.00;;;;;;5011742;28;20064;-73
2022/05/06 12:22:22;;;;;;;5.65;3.65;;;28.30;46.50;;;;;;5011308;28;20033;-73
2022/05/06 12:24:55;;;;;;;6.47;4.50;;;28.50;48.80;;;;;;5008950;28;20112;-75
2022/05/06 12:27:29;;;;;;;5.82;4.18;;;28.70;47.00;;;;;;5022379;28;20320;-74
2022/05/06 12:29:55;;;;;;;6.63;4.60;;;28.50;47.70;;;;;;5005995;28;20029;-71
2022/05/06 12:32:22;;;;;;;5.18;3.30;;;28.90;47.80;;;;;;5025045;28;20021;-76
2022/05/06 12:35:02;;;;;;;6.03;3.70;;;29.60;46.80;;;;;;5032038;28;20838;-77
2022/05/06 12:37:28;;;;;;;7.55;5.22;;;30.10;46.30;;;;;;5001528;28;20052;-74
2022/05/06 12:39:59;;;;;;;6.47;3.85;;;29.20;42.90;;;;;;4987004;28;20041;-74
2022/05/06 12:42:26;;;;;;;5.85;3.58;;;29.40;45.30;;;;;;5034996;28;20500;-74
2022/05/06 12:44:52;;;;;;;5.70;3.45;;;29.00;45.50;;;;;;5034784;28;20033;-73
2022/05/06 12:50:09;;;;;;;4.15;3.20;;;29.50;43.70;;;;;;5034719;28;20095;-73
2022/05/06 12:52:36;;;;;;;5.75;3.50;;;29.20;44.20;;;;;;5015476;28;20022;-73
2022/05/06 12:55:05;;;;;;;4.38;3.97;;;29.20;44.70;;;;;;5012904;28;20049;-74
2022/05/06 12:57:32;;;;;;;5.60;3.17;;;28.60;44.60;;;;;;5031560;28;20113;-76
2022/05/06 12:59:57;;;;;;;5.80;2.83;;;28.60;45.40;;;;;;5032525;28;20456;-75
2022/05/06 13:02:23;;;;;;;5.18;3.00;;;28.70;45.40;;;;;;5030460;28;20112;-75
2022/05/06 13:04:49;;;;;;;3.65;2.50;;;28.80;44.60;;;;;;5032396;28;20492;-74
2022/05/06 13:07:15;;;;;;;4.80;2.72;;;28.60;44.50;;;;;;5015277;28;20030;-73
2022/05/06 13:09:41;;;;;;;4.13;3.10;;;28.10;44.10;;;;;;5012807;28;20033;-73
2022/05/06 13:12:09;;;;;;;6.60;3.85;;;28.20;45.70;;;;;;5026972;28;20042;-74
2022/05/06 13:14:35;;;;;;;6.50;3.47;;;28.90;44.10;;;;;;5012159;28;20405;-72
2022/05/06 13:17:01;;;;;;;5.68;3.20;;;28.90;42.90;;;;;;5015675;28;20057;-72
2022/05/06 13:19:29;;;;;;;5.35;3.63;;;28.50;43.90;;;;;;5011841;28;20072;-72
2022/05/06 13:21:55;;;;;;;6.57;3.17;;;27.90;43.40;;;;;;5012394;28;20387;-72